Time;durP1;ratioP1;P1;durP2;ratioP2;P2;SDS_P1;SDS_P2;PMS_P1;PMS_P2;Temp;Humidity;BMP_temperature;BMP_pressure;BME280_temperature;BME280_humidity;BME280_pressure;Samples;Min_cycle;Max_cycle;Signal;HPM_P1;HPM_P2
2024/01/21 00:00:06;;;;;;;19.58;7.60;;;;;;;-1.60;100.00;102230.84;5084421;28;20067;-75
2024/01/21 00:02:32;;;;;;;20.27;7.95;;;;;;;-1.67;100.00;102223.38;5084366;28;20038;-79
2024/01/21 00:04:57;;;;;;;20.38;7.68;;;;;;;-1.78;100.00;102215.69;5083398;28;20104;-78
2024/01/21 00:07:22;;;;;;;19.85;7.65;;;;;;;-1.85;100.00;102210.81;5085002;28;20482;-79
2024/01/21 00:09:48;;;;;;;19.98;7.68;;;;;;;-1.88;100.00;102207.97;5081530;28;20057;-73
2024/01/21 00:12:13;;;;;;;20.83;8.10;;;;;;;-1.92;100.00;102211.13;5084973;28;20119;-75
2024/01/21 00:14:38;;;;;;;20.42;7.97;;;;;;;-1.98;100.00;102200.28;5083077;28;20137;-73
2024/01/21 00:17:05;;;;;;;20.08;8.15;;;;;;;-2.04;100.00;102189.44;5083795;28;20055;-74
2024/01/21 00:19:31;;;;;;;20.00;8.00;;;;;;;-2.09;100.00;102189.09;5083035;28;20032;-78
2024/01/21 00:21:56;;;;;;;20.83;8.50;;;;;;;-2.14;100.00;102183.56;5082303;28;20116;-78
2024/01/21 00:24:21;;;;;;;20.52;8.27;;;;;;;-2.15;100.00;102180.84;5085297;28;20542;-78
2024/01/21 00:26:47;;;;;;;21.25;8.30;;;;;;;-2.21;100.00;102173.50;5081526;28;20050;-75
2024/01/21 00:29:12;;;;;;;20.65;8.55;;;;;;;-2.26;100.00;102176.53;5084796;28;20036;-78
2024/01/21 00:31:37;;;;;;;21.40;8.20;;;;;;;-2.26;100.00;102172.22;5082907;28;20031;-81
2024/01/21 00:34:03;;;;;;;19.98;8.02;;;;;;;-2.32;100.00;102164.88;5083231;28;20082;-73
2024/01/21 00:36:28;;;;;;;20.40;8.48;;;;;;;-2.32;100.00;102164.00;5083911;28;20467;-78
2024/01/21 00:38:53;;;;;;;21.00;8.30;;;;;;;-2.36;100.00;102159.34;5080672;28;20503;-72
2024/01/21 00:41:20;;;;;;;19.85;8.20;;;;;;;-2.41;100.00;102152.94;5083569;28;20020;-73
2024/01/21 00:43:45;;;;;;;20.63;8.13;;;;;;;-2.46;100.00;102157.75;5081617;28;20028;-74
2024/01/21 00:46:11;;;;;;;20.50;8.40;;;;;;;-2.46;100.00;102168.13;5084021;28;20031;-79
2024/01/21 00:48:36;;;;;;;21.08;8.80;;;;;;;-2.49;100.00;102157.50;5082581;28;20566;-76
2024/01/21 00:51:01;;;;;;;20.52;8.20;;;;;;;-2.49;100.00;102162.66;5081343;28;20024;-73
2024/01/21 00:53:27;;;;;;;20.50;8.60;;;;;;;-2.52;100.00;102163.34;5083953;28;20024;-77
2024/01/21 00:55:52;;;;;;;21.02;8.77;;;;;;;-2.53;100.00;102169.31;5081196;28;20064;-74
2024/01/21 00:58:18;;;;;;;21.23;8.82;;;;;;;-2.53;100.00;102160.66;5084718;28;20023;-74
2024/01/21 01:00:43;;;;;;;21.23;9.18;;;;;;;-2.55;100.00;102163.13;5080202;28;20064;-79
2024/01/21 01:03:08;;;;;;;20.20;8.40;;;;;;;-2.56;100.00;102148.34;5082910;28;20451;-80
2024/01/21 01:05:34;;;;;;;21.65;9.02;;;;;;;-2.53;100.00;102145.09;5083038;28;20090;-75
2024/01/21 01:07:59;;;;;;;21.08;8.75;;;;;;;-2.55;100.00;102136.31;5081947;28;20114;-81
2024/01/21 01:10:24;;;;;;;21.15;8.80;;;;;;;-2.56;100.00;102138.00;5084221;28;20095;-84
2024/01/21 01:12:50;;;;;;;19.88;8.20;;;;;;;-2.54;100.00;102126.06;5081209;28;20029;-80
2024/01/21 01:15:15;;;;;;;20.45;8.13;;;;;;;-2.50;100.00;102122.03;5084181;28;20028;-84
2024/01/21 01:17:40;;;;;;;20.90;8.73;;;;;;;-2.48;100.00;102116.16;5080480;28;20032;-81
2024/01/21 01:20:06;;;;;;;21.08;8.77;;;;;;;-2.47;100.00;102109.31;5082924;28;20025;-73
2024/01/21 01:22:32;;;;;;;21.02;8.60;;;;;;;-2.46;100.00;102104.25;5081612;28;20059;-76
2024/01/21 01:24:57;;;;;;;20.77;8.52;;;;;;;-2.46;100.00;102090.41;5081744;28;20109;-74
2024/01/21 01:27:24;;;;;;;20.30;8.30;;;;;;;-2.47;100.00;102093.78;5083036;28;20169;-78
2024/01/21 01:29:50;;;;;;;21.25;8.90;;;;;;;-2.49;100.00;102091.06;5080934;28;20029;-81
2024/01/21 01:32:15;;;;;;;20.90;8.88;;;;;;;-2.51;100.00;102077.09;5084063;28;20028;-86
2024/01/21 01:34:41;;;;;;;20.95;8.50;;;;;;;-2.50;100.00;102073.72;5063461;28;20161;-86
2024/01/21 01:37:08;;;;;;;20.70;8.68;;;;;;;-2.52;100.00;102074.38;5082640;28;20045;-83
2024/01/21 01:39:34;;;;;;;20.52;8.55;;;;;;;-2.50;100.00;102076.31;5082805;28;20028;-84
2024/01/21 01:41:59;;;;;;;20.50;8.50;;;;;;;-2.47;100.00;102066.19;5081705;28;20027;-86
2024/01/21 01:44:25;;;;;;;20.20;7.78;;;;;;;-2.41;100.00;102054.50;5082373;28;20467;-85
2024/01/21 01:46:50;;;;;;;20.08;8.32;;;;;;;-2.39;100.00;102050.31;5080781;28;20122;-86
2024/01/21 01:49:16;;;;;;;20.70;8.35;;;;;;;-2.40;100.00;102041.66;5083791;28;20039;-85
2024/01/21 01:51:41;;;;;;;20.13;8.20;;;;;;;-2.36;100.00;102035.00;5081284;28;20033;-85
2024/01/21 01:54:07;;;;;;;19.95;8.00;;;;;;;-2.36;100.00;102025.56;5082757;28;20048;-86
2024/01/21 01:56:33;;;;;;;20.58;7.90;;;;;;;-2.36;100.00;102030.75;5082406;28;20036;-86
2024/01/21 01:59:01;;;;;;;20.52;8.25;;;;;;;-2.34;100.00;102030.88;5081281;28;20055;-86
2024/01/21 02:01:28;;;;;;;20.58;7.72;;;;;;;-2.32;100.00;102031.88;5083520;28;20386;-84
2024/01/21 02:03:56;;;;;;;19.83;7.65;;;;;;;-2.35;100.00;102026.47;5080680;28;20024;-85
2024/01/21 02:06:21;;;;;;;20.20;7.90;;;;;;;-2.34;100.00;102017.91;5082545;28;20032;-86
2024/01/21 02:08:46;;;;;;;19.60;7.57;;;;;;;-2.34;100.00;102011.03;5080374;28;20047;-86
2024/01/21 02:11:12;;;;;;;20.00;7.38;;;;;;;-2.38;100.00;102005.50;5083018;28;20181;-85
2024/01/21 02:13:37;;;;;;;19.25;7.47;;;;;;;-2.37;100.00;102002.16;5081658;28;20391;-79
2024/01/21 02:16:03;;;;;;;20.35;7.90;;;;;;;-2.37;100.00;102003.03;5084220;28;20115;-85
2024/01/21 02:18:28;;;;;;;20.45;7.72;;;;;;;-2.33;100.00;101999.91;5086705;28;20467;-86
2024/01/21 02:20:53;;;;;;;19.85;7.35;;;;;;;-2.28;100.00;101993.34;5083987;28;20033;-86
2024/01/21 02:23:19;;;;;;;19.85;7.13;;;;;;;-2.16;100.00;101989.88;5087823;28;20028;-74
2024/01/21 02:25:44;;;;;;;19.13;6.50;;;;;;;-1.99;100.00;101994.63;5083852;28;20124;-86
2024/01/21 02:28:09;;;;;;;18.80;6.35;;;;;;;-1.89;100.00;101985.84;5086492;28;20036;-75
2024/01/21 02:30:40;;;;;;;18.52;6.20;;;;;;;-1.74;100.00;101975.66;5085471;28;20032;-73
2024/01/21 02:33:07;;;;;;;18.25;6.22;;;;;;;-1.61;100.00;101978.34;5085874;28;20435;-74
2024/01/21 02:35:32;;;;;;;17.80;5.72;;;;;;;-1.52;100.00;101970.31;5085845;28;20024;-78
2024/01/21 02:37:58;;;;;;;18.38;5.93;;;;;;;-1.47;100.00;101956.00;5083689;28;20024;-75
2024/01/21 02:40:23;;;;;;;18.30;6.45;;;;;;;-1.45;100.00;101953.50;5087017;28;20063;-75
2024/01/21 02:42:48;;;;;;;20.85;6.57;;;;;;;-1.50;100.00;101955.78;5083895;28;20112;-73
2024/01/21 02:45:14;;;;;;;18.48;6.32;;;;;;;-1.53;100.00;101952.06;5087923;28;20110;-72
2024/01/21 02:47:39;;;;;;;19.23;6.28;;;;;;;-1.54;100.00;101945.06;5085871;28;20052;-73
2024/01/21 02:50:05;;;;;;;18.67;6.18;;;;;;;-1.52;100.00;101940.91;5085832;28;20032;-74
2024/01/21 02:52:30;;;;;;;18.20;5.90;;;;;;;-1.50;100.00;101957.44;5084543;28;20111;-74
2024/01/21 02:54:56;;;;;;;18.88;6.07;;;;;;;-1.41;100.00;101955.53;5068432;28;20043;-73
2024/01/21 02:57:21;;;;;;;18.23;5.68;;;;;;;-1.32;100.00;101953.56;5083720;28;20107;-73
2024/01/21 02:59:46;;;;;;;17.95;6.03;;;;;;;-1.27;100.00;101961.66;5086742;28;20078;-72
2024/01/21 03:02:12;;;;;;;18.73;5.70;;;;;;;-1.23;100.00;101955.91;5084612;28;20155;-79
2024/01/21 03:04:37;;;;;;;19.23;6.10;;;;;;;-1.22;100.00;101955.13;5085534;28;20417;-79
2024/01/21 03:07:03;;;;;;;18.58;6.20;;;;;;;-1.19;100.00;101944.94;5085299;28;20160;-77
2024/01/21 03:09:28;;;;;;;18.05;5.90;;;;;;;-1.23;100.00;101942.94;5084201;28;20048;-79
2024/01/21 03:11:56;;;;;;;18.70;5.80;;;;;;;-1.28;100.00;101928.72;5087851;28;20442;-82
2024/01/21 03:14:21;;;;;;;18.00;5.90;;;;;;;-1.29;100.00;101921.75;5083747;28;20058;-84
2024/01/21 03:16:47;;;;;;;17.58;5.70;;;;;;;-1.30;100.00;101914.75;5087204;28;20044;-82
2024/01/21 03:19:12;;;;;;;18.65;6.10;;;;;;;-1.30;100.00;101923.44;5085188;28;20028;-80
2024/01/21 03:21:37;;;;;;;18.75;5.70;;;;;;;-1.30;100.00;101914.75;5084732;28;20026;-85
2024/01/21 03:24:03;;;;;;;18.27;5.65;;;;;;;-1.34;100.00;101913.66;5085712;28;20482;-85
2024/01/21 03:26:28;;;;;;;18.42;5.90;;;;;;;-1.31;100.00;101916.47;5084118;28;20039;-85
2024/01/21 03:28:53;;;;;;;17.13;5.60;;;;;;;-1.31;100.00;101912.94;5087230;28;20051;-82
2024/01/21 03:31:19;;;;;;;17.52;5.57;;;;;;;-1.32;100.00;101917.25;5083861;28;20026;-85
2024/01/21 03:33:45;;;;;;;17.40;5.72;;;;;;;-1.34;100.00;101917.94;5086511;28;20034;-80
2024/01/21 03:36:11;;;;;;;18.65;5.78;;;;;;;-1.33;100.00;101909.34;5083232;28;20032;-77
2024/01/21 03:38:37;;;;;;;18.10;5.60;;;;;;;-1.31;100.00;101912.94;5085530;28;20029;-74
2024/01/21 03:41:03;;;;;;;17.52;5.60;;;;;;;-1.33;100.00;101911.94;5085923;28;20111;-73
2024/01/21 03:43:28;;;;;;;16.58;5.22;;;;;;;-1.38;100.00;101903.84;5084273;28;20039;-72
2024/01/21 03:45:54;;;;;;;18.83;5.82;;;;;;;-1.37;100.00;101902.16;5087180;28;20036;-85
2024/01/21 03:48:19;;;;;;;18.35;5.78;;;;;;;-1.37;100.00;101896.97;5083411;28;20450;-84
2024/01/21 03:50:44;;;;;;;18.38;5.90;;;;;;;-1.36;100.00;101897.06;5085617;28;20030;-78
2024/01/21 03:53:10;;;;;;;17.92;5.70;;;;;;;-1.37;100.00;101903.03;5083831;28;20032;-76
2024/01/21 03:55:35;;;;;;;18.17;5.80;;;;;;;-1.34;100.00;101899.75;5084151;28;20075;-78
2024/01/21 03:58:01;;;;;;;18.55;5.88;;;;;;;-1.37;100.00;101882.28;5085056;28;20116;-77
2024/01/21 04:00:26;;;;;;;18.52;6.20;;;;;;;-1.41;100.00;101868.22;5064688;28;20475;-78
2024/01/21 04:02:51;;;;;;;17.27;5.80;;;;;;;-1.39;100.00;101864.84;5085765;28;20036;-78
2024/01/21 04:05:17;;;;;;;19.13;5.95;;;;;;;-1.42;100.00;101868.13;5064401;28;20033;-77
2024/01/21 04:07:42;;;;;;;17.88;5.68;;;;;;;-1.47;100.00;101862.63;5083108;28;20127;-78
2024/01/21 04:10:09;;;;;;;18.55;6.18;;;;;;;-1.49;100.00;101852.91;5083089;28;20568;-78
2024/01/21 04:12:35;;;;;;;18.02;5.78;;;;;;;-1.52;100.00;101852.72;5083697;28;20375;-75
2024/01/21 04:15:01;;;;;;;17.83;6.10;;;;;;;-1.52;100.00;101853.59;5082977;28;20039;-77
2024/01/21 04:17:27;;;;;;;18.95;6.03;;;;;;;-1.52;100.00;101853.59;5064095;28;20041;-77
2024/01/21 04:19:52;;;;;;;19.05;6.38;;;;;;;-1.49;100.00;101855.50;5085202;28;20032;-78
2024/01/21 04:22:18;;;;;;;17.83;5.75;;;;;;;-1.38;100.00;101870.13;5081844;28;20033;-78
2024/01/21 04:24:46;;;;;;;18.83;6.30;;;;;;;-1.34;100.00;101872.16;5084269;28;20035;-79
2024/01/21 04:27:11;;;;;;;18.90;6.07;;;;;;;-1.28;100.00;101866.44;5082665;28;20036;-72
2024/01/21 04:29:36;;;;;;;18.35;5.97;;;;;;;-1.20;100.00;101854.91;5083117;28;20205;-84
2024/01/21 04:32:02;;;;;;;17.95;6.38;;;;;;;-1.12;100.00;101858.00;5084389;28;20085;-84
2024/01/21 04:34:27;;;;;;;18.65;6.20;;;;;;;-0.99;100.00;101850.28;5082679;28;20027;-82
2024/01/21 04:36:52;;;;;;;18.10;6.03;;;;;;;-0.94;100.00;101842.81;5085444;28;20087;-86
2024/01/21 04:39:21;;;;;;;18.73;6.00;;;;;;;-0.84;100.00;101834.81;5081322;28;20028;-77
2024/01/21 04:41:51;;;;;;;17.65;5.80;;;;;;;-0.72;100.00;101816.56;5085169;28;20383;-79
2024/01/21 04:44:17;;;;;;;18.70;6.40;;;;;;;-0.71;100.00;101798.47;5081732;28;20527;-78
2024/01/21 04:46:42;;;;;;;19.30;6.38;;;;;;;-0.66;100.00;101782.28;5083998;28;20127;-76
2024/01/21 04:49:07;;;;;;;19.63;6.55;;;;;;;-0.51;100.00;101798.88;5083117;28;20035;-81
2024/01/21 04:51:33;;;;;;;18.83;6.72;;;;;;;-0.41;100.00;101789.97;5082698;28;20032;-74
2024/01/21 04:53:58;;;;;;;18.60;6.80;;;;;;;-0.35;100.00;101756.56;5084439;28;20028;-77
2024/01/21 04:56:23;;;;;;;19.00;6.60;;;;;;;-0.29;100.00;101743.97;5081750;28;20033;-78
2024/01/21 04:58:50;;;;;;;19.23;6.68;;;;;;;-0.21;100.00;101760.03;5084753;28;20036;-73
2024/01/21 05:01:16;;;;;;;19.52;7.10;;;;;;;-0.13;100.00;101763.09;5082112;28;20029;-75
2024/01/21 05:03:41;;;;;;;19.55;7.05;;;;;;;-0.08;100.00;101754.78;5084074;28;20383;-78
2024/01/21 05:06:06;;;;;;;20.15;7.43;;;;;;;-0.06;100.00;101745.41;5082870;28;20028;-73
2024/01/21 05:08:32;;;;;;;20.02;7.47;;;;;;;0.05;100.00;101758.19;5082279;28;20056;-72
2024/01/21 05:10:57;;;;;;;21.40;8.07;;;;;;;0.10;100.00;101754.13;5084266;28;20020;-74
2024/01/21 05:13:23;;;;;;;20.63;8.20;;;;;;;0.12;100.00;101761.22;5081362;28;20468;-72
2024/01/21 05:15:48;;;;;;;20.77;8.40;;;;;;;0.11;100.00;101743.81;5066879;28;20097;-76
2024/01/21 05:18:14;;;;;;;21.17;8.32;;;;;;;0.15;100.00;101752.72;5081788;28;20376;-72
2024/01/21 05:20:39;;;;;;;21.52;8.45;;;;;;;0.06;100.00;101770.34;5082980;28;20082;-73
2024/01/21 05:23:04;;;;;;;21.42;8.68;;;;;;;0.15;100.00;101796.94;5082971;28;20032;-74
2024/01/21 05:25:30;;;;;;;21.85;8.50;;;;;;;0.25;100.00;101774.97;5081524;28;20138;-72
2024/01/21 05:27:58;;;;;;;21.45;9.05;;;;;;;0.18;100.00;101752.91;5084087;28;20035;-74
2024/01/21 05:30:23;;;;;;;20.95;8.85;;;;;;;0.18;100.00;101739.91;5081168;28;20111;-73
2024/01/21 05:32:50;;;;;;;21.00;8.77;;;;;;;0.19;100.00;101739.13;5082686;28;20027;-73
2024/01/21 05:35:19;;;;;;;20.33;7.95;;;;;;;0.24;100.00;101749.78;5080166;28;20454;-74
2024/01/21 05:37:44;;;;;;;20.40;8.15;;;;;;;0.23;100.00;101751.47;5083768;28;20036;-73
2024/01/21 05:40:10;;;;;;;20.73;8.43;;;;;;;0.19;100.00;101754.72;5081897;28;20028;-78
2024/01/21 05:42:35;;;;;;;20.48;8.00;;;;;;;0.20;100.00;101758.22;5082057;28;20150;-77
2024/01/21 05:45:01;;;;;;;19.77;7.68;;;;;;;0.20;100.00;101743.50;5083256;28;20047;-76
2024/01/21 05:47:26;;;;;;;20.00;8.00;;;;;;;0.29;100.00;101750.94;5080609;28;20055;-78
2024/01/21 05:49:52;;;;;;;20.52;8.25;;;;;;;0.33;100.00;101759.03;5084737;28;20028;-73
2024/01/21 05:52:17;;;;;;;20.95;8.02;;;;;;;0.27;100.00;101753.47;5084949;28;20605;-74
2024/01/21 05:54:42;;;;;;;20.15;7.72;;;;;;;0.26;100.00;101749.09;5085651;28;20039;-73
2024/01/21 05:57:09;;;;;;;20.05;7.75;;;;;;;0.31;100.00;101739.84;5086066;28;20020;-73
2024/01/21 05:59:34;;;;;;;20.65;8.13;;;;;;;0.32;100.00;101765.06;5085534;28;20399;-73
2024/01/21 06:01:59;;;;;;;20.33;7.97;;;;;;;0.30;100.00;101745.84;5087079;28;20035;-84
2024/01/21 06:04:25;;;;;;;20.05;7.70;;;;;;;0.27;100.00;101748.25;5084427;28;20037;-78
2024/01/21 06:06:51;;;;;;;19.98;7.90;;;;;;;0.32;100.00;101732.91;5078862;28;20033;-74
2024/01/21 06:09:16;;;;;;;20.35;8.18;;;;;;;0.38;100.00;101729.78;5086782;28;20131;-74
2024/01/21 06:11:44;;;;;;;20.67;7.90;;;;;;;0.46;100.00;101733.75;5085477;28;20078;-73
2024/01/21 06:14:10;;;;;;;20.88;8.15;;;;;;;0.49;100.00;101737.44;5086086;28;20399;-73
2024/01/21 06:16:35;;;;;;;20.45;7.50;;;;;;;0.46;100.00;101746.78;5084670;28;20028;-73
2024/01/21 06:19:00;;;;;;;20.73;7.65;;;;;;;0.48;100.00;101743.47;5084806;28;20028;-73
2024/01/21 06:21:26;;;;;;;20.23;8.20;;;;;;;0.52;100.00;101762.75;5087268;28;20079;-73
2024/01/21 06:23:51;;;;;;;20.08;7.88;;;;;;;0.53;100.00;101751.53;5083924;28;20056;-73
2024/01/21 06:26:19;;;;;;;20.50;8.13;;;;;;;0.52;100.00;101761.06;5085689;28;20028;-78
2024/01/21 06:28:45;;;;;;;20.15;8.00;;;;;;;0.62;100.00;101775.50;5083199;28;20062;-74
2024/01/21 06:31:10;;;;;;;20.23;7.78;;;;;;;0.58;100.00;101751.81;5085801;28;20068;-83
2024/01/21 06:33:35;;;;;;;20.42;8.07;;;;;;;0.56;100.00;101751.72;5085776;28;20024;-74
2024/01/21 06:36:01;;;;;;;20.42;8.20;;;;;;;0.57;100.00;101773.41;5084374;28;20054;-78
2024/01/21 06:38:26;;;;;;;20.55;7.93;;;;;;;0.58;100.00;101755.28;5086877;28;20471;-81
2024/01/21 06:40:52;;;;;;;20.58;7.68;;;;;;;0.61;100.00;101760.72;5082478;28;20109;-82
2024/01/21 06:43:18;;;;;;;19.50;7.88;;;;;;;0.62;100.00;101764.19;5086597;28;20493;-74
2024/01/21 06:45:43;;;;;;;19.90;7.55;;;;;;;0.58;100.00;101763.09;5084550;28;20024;-81
2024/01/21 06:48:09;;;;;;;20.92;8.10;;;;;;;0.59;100.00;101761.41;5085582;28;20025;-85
2024/01/21 06:50:35;;;;;;;20.38;8.00;;;;;;;0.63;100.00;101764.28;5085647;28;20364;-82
2024/01/21 06:53:00;;;;;;;20.55;7.75;;;;;;;0.71;100.00;101766.44;5084192;28;20056;-75
2024/01/21 06:55:25;;;;;;;19.85;7.70;;;;;;;0.70;100.00;101770.75;5086701;28;20162;-74
2024/01/21 06:57:51;;;;;;;19.30;7.30;;;;;;;0.75;100.00;101774.53;5083521;28;20040;-73
2024/01/21 07:00:17;;;;;;;20.30;8.00;;;;;;;0.78;100.00;101773.81;5084790;28;20031;-77
2024/01/21 07:02:42;;;;;;;20.80;8.00;;;;;;;0.80;100.00;101782.59;5083943;28;20435;-81
2024/01/21 07:05:08;;;;;;;19.52;7.45;;;;;;;0.77;100.00;101761.59;5083561;28;20035;-78
2024/01/21 07:07:33;;;;;;;20.35;7.55;;;;;;;0.81;100.00;101756.66;5085706;28;20032;-73
2024/01/21 07:09:59;;;;;;;20.33;8.05;;;;;;;0.77;100.00;101741.69;5083235;28;20549;-74
2024/01/21 07:12:24;;;;;;;19.55;7.32;;;;;;;0.82;100.00;101721.13;5086481;28;20111;-75
2024/01/21 07:14:50;;;;;;;20.20;8.02;;;;;;;0.85;100.00;101708.28;5083106;28;20040;-74
2024/01/21 07:17:16;;;;;;;19.35;7.22;;;;;;;0.89;100.00;101710.25;5085617;28;20035;-74
2024/01/21 07:19:42;;;;;;;19.65;7.53;;;;;;;0.88;100.00;101717.97;5082851;28;20032;-75
2024/01/21 07:22:08;;;;;;;19.10;7.38;;;;;;;0.92;100.00;101713.03;5084488;28;20479;-73
2024/01/21 07:24:34;;;;;;;19.95;7.78;;;;;;;0.84;100.00;101724.69;5085022;28;20032;-73
2024/01/21 07:27:00;;;;;;;20.20;7.90;;;;;;;0.85;100.00;101700.47;5083414;28;20035;-73
2024/01/21 07:29:25;;;;;;;20.58;8.00;;;;;;;0.82;100.00;101709.00;5086358;28;20028;-74
2024/01/21 07:31:51;;;;;;;19.58;7.53;;;;;;;0.84;100.00;101716.88;5082492;28;20025;-75
2024/01/21 07:34:16;;;;;;;19.58;7.38;;;;;;;0.81;100.00;101719.31;5085540;28;20486;-76
2024/01/21 07:36:41;;;;;;;21.60;8.45;;;;;;;0.90;100.00;101717.22;5083761;28;20119;-78
2024/01/21 07:39:07;;;;;;;21.02;8.05;;;;;;;0.83;100.00;101707.28;5083139;28;20028;-75
2024/01/21 07:41:32;;;;;;;20.83;8.35;;;;;;;0.83;100.00;101705.59;5085173;28;20083;-78
2024/01/21 07:43:59;;;;;;;20.27;7.57;;;;;;;0.81;100.00;101719.31;5081259;28;20028;-74
2024/01/21 07:46:24;;;;;;;19.55;6.95;;;;;;;0.77;100.00;101722.53;5085711;28;20036;-74
2024/01/21 07:48:50;;;;;;;19.33;7.60;;;;;;;0.77;100.00;101715.66;5082468;28;20379;-75
2024/01/21 07:51:19;;;;;;;19.90;7.53;;;;;;;0.85;100.00;101745.63;5084741;28;20060;-78
2024/01/21 07:53:45;;;;;;;19.60;7.78;;;;;;;0.80;100.00;101751.34;5082011;28;20020;-78
2024/01/21 07:56:11;;;;;;;19.65;7.10;;;;;;;0.76;100.00;101760.72;5084459;28;20426;-78
2024/01/21 07:58:37;;;;;;;20.70;7.72;;;;;;;0.80;100.00;101748.75;5083787;28;20031;-78
2024/01/21 08:01:05;;;;;;;19.48;7.30;;;;;;;0.81;100.00;101771.38;5082727;28;20033;-78
2024/01/21 08:03:32;;;;;;;20.48;7.53;;;;;;;0.83;100.00;101773.28;5083745;28;20080;-77
2024/01/21 08:05:57;;;;;;;19.42;7.32;;;;;;;0.81;100.00;101790.50;5047470;28;20040;-78
2024/01/21 08:08:22;;;;;;;19.58;6.85;;;;;;;0.75;100.00;101800.56;5083805;28;20052;-77
2024/01/21 08:10:48;;;;;;;18.85;6.85;;;;;;;0.84;100.00;101801.09;5081154;28;20028;-75
2024/01/21 08:13:14;;;;;;;19.20;7.22;;;;;;;0.86;100.00;101815.13;5083971;28;20068;-74
2024/01/21 08:15:40;;;;;;;19.38;7.10;;;;;;;0.92;100.00;101817.19;5081404;28;20373;-75
2024/01/21 08:18:05;;;;;;;19.30;6.85;;;;;;;1.06;100.00;101831.00;5084611;28;20035;-78
2024/01/21 08:20:30;;;;;;;19.52;6.97;;;;;;;1.16;100.00;101822.91;5082790;28;20024;-78
2024/01/21 08:22:56;;;;;;;20.50;7.40;;;;;;;1.29;100.00;101826.25;5085406;28;20032;-77
2024/01/21 08:25:21;;;;;;;19.45;7.30;;;;;;;1.30;100.00;101818.50;5082236;28;20029;-79
2024/01/21 08:27:47;;;;;;;19.02;7.13;;;;;;;1.38;100.00;101821.56;5083395;28;20110;-78
2024/01/21 08:30:12;;;;;;;19.33;6.93;;;;;;;1.36;100.00;101824.06;5082170;28;20064;-78
2024/01/21 08:32:38;;;;;;;19.98;7.30;;;;;;;1.40;100.00;101817.34;5083125;28;20024;-77
2024/01/21 08:35:04;;;;;;;19.65;7.28;;;;;;;1.46;100.00;101801.16;5084235;28;20036;-78
2024/01/21 08:37:30;;;;;;;19.80;7.60;;;;;;;1.41;100.00;101794.78;5082403;28;20031;-78
2024/01/21 08:39:55;;;;;;;20.30;7.63;;;;;;;1.50;100.00;101796.19;5085376;28;20024;-78
2024/01/21 08:42:20;;;;;;;20.17;7.50;;;;;;;1.55;100.00;101793.84;5081902;28;20027;-78
2024/01/21 08:44:46;;;;;;;20.45;7.60;;;;;;;1.58;100.00;101788.81;5084776;28;20148;-78
2024/01/21 08:47:12;;;;;;;19.58;7.07;;;;;;;1.53;100.00;101782.41;5083136;28;20052;-79
2024/01/21 08:49:37;;;;;;;18.83;6.95;;;;;;;1.58;100.00;101798.34;5083177;28;20577;-78
2024/01/21 08:52:02;;;;;;;19.83;7.38;;;;;;;1.59;100.00;101805.31;5083366;28;20071;-78
2024/01/21 08:54:28;;;;;;;20.60;7.68;;;;;;;1.63;100.00;101807.31;5081520;28;20032;-78
2024/01/21 08:56:54;;;;;;;19.50;7.03;;;;;;;1.74;100.00;101854.00;5082366;28;20368;-74
2024/01/21 08:59:19;;;;;;;19.85;7.28;;;;;;;1.74;100.00;101819.25;5085138;28;20142;-77
2024/01/21 09:01:44;;;;;;;19.33;6.88;;;;;;;1.74;100.00;101816.63;5083096;28;20468;-79
2024/01/21 09:04:10;;;;;;;18.92;7.07;;;;;;;1.75;100.00;101808.00;5083653;28;20032;-79
2024/01/21 09:06:41;;;;;;;19.50;7.10;;;;;;;1.72;100.00;101806.13;5082023;28;20036;-77
2024/01/21 09:09:11;;;;;;;19.75;7.20;;;;;;;1.70;100.00;101799.94;5082126;28;20109;-75
2024/01/21 09:11:37;;;;;;;18.90;7.65;;;;;;;1.69;100.00;101821.59;5081184;28;20044;-75
2024/01/21 09:14:03;;;;;;;19.08;6.93;;;;;;;1.73;100.00;101815.75;5085125;28;20034;-78
2024/01/21 09:16:29;;;;;;;19.67;7.00;;;;;;;1.74;100.00;101821.84;5084373;28;20378;-75
2024/01/21 09:18:55;;;;;;;19.58;7.20;;;;;;;1.75;100.00;101813.22;5080890;28;20051;-78
2024/01/21 09:21:20;;;;;;;19.17;7.32;;;;;;;1.70;100.00;101836.44;5080475;28;20466;-77
2024/01/21 09:23:46;;;;;;;20.45;7.47;;;;;;;1.76;100.00;101834.97;5080364;28;20029;-79
2024/01/21 09:26:11;;;;;;;19.33;7.22;;;;;;;1.82;100.00;101840.50;5087292;28;20063;-75
2024/01/21 09:28:36;;;;;;;19.70;7.20;;;;;;;1.84;100.00;101846.72;5087772;28;20103;-74
2024/01/21 09:31:02;;;;;;;19.40;7.10;;;;;;;1.85;100.00;101844.22;5085893;28;20028;-74
2024/01/21 09:33:28;;;;;;;19.10;6.90;;;;;;;1.84;100.00;101844.13;5088640;28;20475;-74
2024/01/21 09:35:53;;;;;;;19.15;7.07;;;;;;;1.78;100.00;101844.69;5085076;28;20063;-74
2024/01/21 09:38:21;;;;;;;19.25;7.07;;;;;;;1.78;100.00;101851.56;5088201;28;20536;-74
2024/01/21 09:40:55;;;;;;;19.52;7.47;;;;;;;1.78;100.00;101864.63;5086191;28;20040;-73
2024/01/21 09:43:22;;;;;;;19.45;7.45;;;;;;;1.74;100.00;101861.84;5088415;28;20058;-73
2024/01/21 09:45:48;;;;;;;19.42;7.70;;;;;;;1.72;100.00;101865.19;5085583;28;20071;-73
2024/01/21 09:48:15;;;;;;;19.90;7.57;;;;;;;1.64;100.00;101859.53;5086412;28;20364;-73
2024/01/21 09:50:42;;;;;;;21.75;7.88;;;;;;;1.65;100.00;101842.19;5086879;28;20021;-78
2024/01/21 09:53:07;;;;;;;20.42;7.55;;;;;;;1.73;100.00;101854.84;5086338;28;20051;-78
2024/01/21 09:55:33;;;;;;;21.15;7.75;;;;;;;1.76;100.00;101851.50;5087667;28;20483;-78
2024/01/21 09:58:01;;;;;;;19.67;7.53;;;;;;;1.72;100.00;101866.09;5085104;28;20028;-79
2024/01/21 10:00:26;;;;;;;20.33;8.23;;;;;;;1.68;100.00;101856.28;5088210;28;20092;-78
2024/01/21 10:02:52;;;;;;;19.85;7.82;;;;;;;1.75;100.00;101860.16;5084479;28;20017;-78
2024/01/21 10:05:19;;;;;;;19.83;8.10;;;;;;;1.73;100.00;101862.66;5087531;28;20115;-80
2024/01/21 10:07:46;;;;;;;20.52;7.85;;;;;;;1.70;100.00;101854.69;5085631;28;20126;-80
2024/01/21 10:10:14;;;;;;;20.67;8.15;;;;;;;1.75;100.00;101849.72;5085176;28;20052;-80
2024/01/21 10:12:40;;;;;;;20.13;7.80;;;;;;;1.78;100.00;101846.34;5086647;28;20043;-79
2024/01/21 10:15:06;;;;;;;20.33;8.00;;;;;;;1.78;100.00;101860.31;5085680;28;20028;-79
2024/01/21 10:17:32;;;;;;;20.23;7.70;;;;;;;1.73;100.00;101866.97;5087201;28;20043;-79
2024/01/21 10:19:58;;;;;;;20.75;8.68;;;;;;;1.73;100.00;101847.03;5084433;28;20037;-79
2024/01/21 10:22:25;;;;;;;21.45;8.90;;;;;;;1.68;100.00;101848.47;5078687;28;20028;-79
2024/01/21 10:24:50;;;;;;;20.98;8.70;;;;;;;1.83;100.00;101843.19;5087337;28;20513;-78
2024/01/21 10:27:16;;;;;;;19.80;8.18;;;;;;;1.89;100.00;101838.34;5085662;28;20032;-73
2024/01/21 10:29:43;;;;;;;20.35;8.35;;;;;;;1.95;100.00;101832.53;5086039;28;20409;-73
2024/01/21 10:32:16;;;;;;;20.77;8.60;;;;;;;1.99;100.00;101828.41;5087113;28;20024;-73
2024/01/21 10:34:45;;;;;;;21.58;8.70;;;;;;;1.98;100.00;101822.31;5085324;28;20037;-73
2024/01/21 10:37:14;;;;;;;21.10;8.35;;;;;;;1.96;100.00;101818.69;5085139;28;20020;-73
2024/01/21 10:39:43;;;;;;;21.50;8.32;;;;;;;2.00;100.00;101815.47;5085871;28;20108;-73
2024/01/21 10:42:09;;;;;;;21.13;8.77;;;;;;;2.00;100.00;101806.75;5086331;28;20032;-75
2024/01/21 10:44:35;;;;;;;21.80;8.85;;;;;;;2.04;100.00;101811.28;5084869;28;20027;-83
2024/01/21 10:47:02;;;;;;;19.70;7.88;;;;;;;2.11;100.00;101799.50;5087604;28;20067;-82
2024/01/21 10:49:29;;;;;;;20.48;8.38;;;;;;;2.12;100.00;101807.41;5084238;28;20036;-83
2024/01/21 10:51:54;;;;;;;20.55;8.07;;;;;;;2.24;100.00;101799.31;5078623;28;20028;-79
2024/01/21 10:54:20;;;;;;;20.88;8.40;;;;;;;2.27;100.00;101812.53;5083840;28;20074;-80
2024/01/21 10:56:48;;;;;;;20.60;8.02;;;;;;;2.37;100.00;101806.09;5084116;28;20033;-83
2024/01/21 10:59:13;;;;;;;20.45;7.97;;;;;;;2.45;100.00;101791.75;5083964;28;20471;-81
2024/01/21 11:01:42;;;;;;;19.77;8.18;;;;;;;2.53;100.00;101792.16;5085497;28;20087;-82
2024/01/21 11:04:12;;;;;;;22.55;8.15;;;;;;;2.68;100.00;101794.66;5086256;28;20051;-83
2024/01/21 11:06:42;;;;;;;21.02;8.02;;;;;;;2.85;100.00;101777.25;5084726;28;20070;-83